sensor_id;sensor_type;location;lat;lon;timestamp;temperature;humidity
46319;DHT22;32042;50.916;2.926;2023-08-06T00:00:06;15.50;99.90
46319;DHT22;32042;50.916;2.926;2023-08-06T00:02:32;15.50;99.90
46319;DHT22;32042;50.916;2.926;2023-08-06T00:04:57;15.50;99.90
46319;DHT22;32042;50.916;2.926;2023-08-06T00:07:23;15.40;99.90
46319;DHT22;32042;50.916;2.926;2023-08-06T00:09:49;15.40;99.90
46319;DHT22;32042;50.916;2.926;2023-08-06T00:12:14;15.40;99.90
46319;DHT22;32042;50.916;2.926;2023-08-06T00:14:40;15.40;99.90
46319;DHT22;32042;50.916;2.926;2023-08-06T00:17:06;15.30;99.90
46319;DHT22;32042;50.916;2.926;2023-08-06T00:19:33;15.30;99.90
46319;DHT22;32042;50.916;2.926;2023-08-06T00:21:59;15.30;99.90
46319;DHT22;32042;50.916;2.926;2023-08-06T00:24:24;15.30;99.90
46319;DHT22;32042;50.916;2.926;2023-08-06T00:26:50;15.30;99.90
46319;DHT22;32042;50.916;2.926;2023-08-06T00:29:16;15.30;99.90
46319;DHT22;32042;50.916;2.926;2023-08-06T00:31:41;15.30;99.90
46319;DHT22;32042;50.916;2.926;2023-08-06T00:34:07;15.30;99.90
46319;DHT22;32042;50.916;2.926;2023-08-06T00:36:33;15.30;99.90
46319;DHT22;32042;50.916;2.926;2023-08-06T00:38:59;15.30;99.90
46319;DHT22;32042;50.916;2.926;2023-08-06T00:41:24;15.30;99.90
46319;DHT22;32042;50.916;2.926;2023-08-06T00:43:50;15.30;99.90
46319;DHT22;32042;50.916;2.926;2023-08-06T00:46:16;15.30;99.90
46319;DHT22;32042;50.916;2.926;2023-08-06T00:48:42;15.30;99.90
46319;DHT22;32042;50.916;2.926;2023-08-06T00:51:10;15.30;99.90
46319;DHT22;32042;50.916;2.926;2023-08-06T00:53:37;15.40;99.90
46319;DHT22;32042;50.916;2.926;2023-08-06T00:56:04;15.30;99.90
46319;DHT22;32042;50.916;2.926;2023-08-06T00:58:30;15.30;99.90
46319;DHT22;32042;50.916;2.926;2023-08-06T01:00:56;15.30;99.90
46319;DHT22;32042;50.916;2.926;2023-08-06T01:03:22;15.30;99.90
46319;DHT22;32042;50.916;2.926;2023-08-06T01:05:48;15.40;99.90
46319;DHT22;32042;50.916;2.926;2023-08-06T01:13:43;15.40;99.90
46319;DHT22;32042;50.916;2.926;2023-08-06T01:16:17;15.40;99.90
46319;DHT22;32042;50.916;2.926;2023-08-06T01:18:43;15.40;99.90
46319;DHT22;32042;50.916;2.926;2023-08-06T01:21:13;15.40;99.90
46319;DHT22;32042;50.916;2.926;2023-08-06T01:23:38;15.30;99.90
46319;DHT22;32042;50.916;2.926;2023-08-06T01:29:01;15.30;99.90
46319;DHT22;32042;50.916;2.926;2023-08-06T01:31:34;15.20;99.90
46319;DHT22;32042;50.916;2.926;2023-08-06T01:34:03;15.20;99.90
46319;DHT22;32042;50.916;2.926;2023-08-06T01:36:30;15.20;99.90
46319;DHT22;32042;50.916;2.926;2023-08-06T01:38:56;15.20;99.90
46319;DHT22;32042;50.916;2.926;2023-08-06T01:41:23;15.10;99.90
46319;DHT22;32042;50.916;2.926;2023-08-06T01:43:49;15.10;99.90
46319;DHT22;32042;50.916;2.926;2023-08-06T01:46:14;15.10;99.90
46319;DHT22;32042;50.916;2.926;2023-08-06T01:48:40;15.10;99.90
46319;DHT22;32042;50.916;2.926;2023-08-06T01:51:06;15.20;99.90
46319;DHT22;32042;50.916;2.926;2023-08-06T01:53:33;15.00;99.90
46319;DHT22;32042;50.916;2.926;2023-08-06T01:55:58;15.10;99.90
46319;DHT22;32042;50.916;2.926;2023-08-06T01:58:24;14.90;99.90
46319;DHT22;32042;50.916;2.926;2023-08-06T02:00:50;14.90;99.90
46319;DHT22;32042;50.916;2.926;2023-08-06T02:03:16;14.80;99.90
46319;DHT22;32042;50.916;2.926;2023-08-06T02:05:42;14.80;99.90
46319;DHT22;32042;50.916;2.926;2023-08-06T02:08:08;14.80;99.90
46319;DHT22;32042;50.916;2.926;2023-08-06T02:10:34;14.70;99.90
46319;DHT22;32042;50.916;2.926;2023-08-06T02:12:59;14.70;99.90
46319;DHT22;32042;50.916;2.926;2023-08-06T02:15:25;14.60;99.90
46319;DHT22;32042;50.916;2.926;2023-08-06T02:17:51;14.60;99.90
46319;DHT22;32042;50.916;2.926;2023-08-06T02:20:16;14.60;99.90
46319;DHT22;32042;50.916;2.926;2023-08-06T02:22:42;14.60;99.90
46319;DHT22;32042;50.916;2.926;2023-08-06T02:25:08;14.60;99.90
46319;DHT22;32042;50.916;2.926;2023-08-06T02:27:34;14.60;99.90
46319;DHT22;32042;50.916;2.926;2023-08-06T02:29:59;14.60;99.90
46319;DHT22;32042;50.916;2.926;2023-08-06T02:32:26;14.60;99.90
46319;DHT22;32042;50.916;2.926;2023-08-06T02:34:53;14.60;99.90
46319;DHT22;32042;50.916;2.926;2023-08-06T02:37:20;14.60;99.90
46319;DHT22;32042;50.916;2.926;2023-08-06T02:39:47;14.60;99.90
46319;DHT22;32042;50.916;2.926;2023-08-06T02:42:13;14.60;99.90
46319;DHT22;32042;50.916;2.926;2023-08-06T02:44:40;14.60;99.90
46319;DHT22;32042;50.916;2.926;2023-08-06T02:47:07;14.60;99.90
46319;DHT22;32042;50.916;2.926;2023-08-06T02:49:34;14.60;99.90
46319;DHT22;32042;50.916;2.926;2023-08-06T02:52:01;14.60;99.90
46319;DHT22;32042;50.916;2.926;2023-08-06T02:54:27;14.60;99.90
46319;DHT22;32042;50.916;2.926;2023-08-06T02:56:53;14.60;99.90
46319;DHT22;32042;50.916;2.926;2023-08-06T02:59:18;14.60;99.90
46319;DHT22;32042;50.916;2.926;2023-08-06T03:01:44;14.60;99.90
46319;DHT22;32042;50.916;2.926;2023-08-06T03:04:10;14.50;99.90
46319;DHT22;32042;50.916;2.926;2023-08-06T03:06:36;14.50;99.90
46319;DHT22;32042;50.916;2.926;2023-08-06T03:09:01;14.60;99.90
46319;DHT22;32042;50.916;2.926;2023-08-06T03:11:27;14.50;99.90
46319;DHT22;32042;50.916;2.926;2023-08-06T03:13:53;14.50;99.90
46319;DHT22;32042;50.916;2.926;2023-08-06T03:16:19;14.50;99.90
46319;DHT22;32042;50.916;2.926;2023-08-06T03:18:44;14.50;99.90
46319;DHT22;32042;50.916;2.926;2023-08-06T03:21:10;14.50;99.90
46319;DHT22;32042;50.916;2.926;2023-08-06T03:23:36;14.50;99.90
46319;DHT22;32042;50.916;2.926;2023-08-06T03:26:04;14.50;99.90
46319;DHT22;32042;50.916;2.926;2023-08-06T03:28:30;14.40;99.90
46319;DHT22;32042;50.916;2.926;2023-08-06T03:31:02;14.40;99.90
46319;DHT22;32042;50.916;2.926;2023-08-06T03:33:28;14.50;99.90
46319;DHT22;32042;50.916;2.926;2023-08-06T03:35:54;14.40;99.90
46319;DHT22;32042;50.916;2.926;2023-08-06T03:38:20;14.50;99.90
46319;DHT22;32042;50.916;2.926;2023-08-06T03:40:46;14.30;99.90
46319;DHT22;32042;50.916;2.926;2023-08-06T03:43:12;14.30;99.90
46319;DHT22;32042;50.916;2.926;2023-08-06T03:45:38;14.30;99.90
46319;DHT22;32042;50.916;2.926;2023-08-06T03:48:04;14.30;99.90
46319;DHT22;32042;50.916;2.926;2023-08-06T03:50:29;14.30;99.90
46319;DHT22;32042;50.916;2.926;2023-08-06T03:52:55;14.30;99.90
46319;DHT22;32042;50.916;2.926;2023-08-06T03:55:21;14.20;99.90
46319;DHT22;32042;50.916;2.926;2023-08-06T03:57:47;14.20;99.90
46319;DHT22;32042;50.916;2.926;2023-08-06T04:00:13;14.20;99.90
46319;DHT22;32042;50.916;2.926;2023-08-06T04:02:39;14.20;99.90
46319;DHT22;32042;50.916;2.926;2023-08-06T04:05:05;14.10;99.90
46319;DHT22;32042;50.916;2.926;2023-08-06T04:07:30;14.10;99.90
46319;DHT22;32042;50.916;2.926;2023-08-06T04:10:00;14.10;99.90
46319;DHT22;32042;50.916;2.926;2023-08-06T04:12:27;14.10;99.90
46319;DHT22;32042;50.916;2.926;2023-08-06T04:14:53;14.10;99.90
46319;DHT22;32042;50.916;2.926;2023-08-06T04:17:20;14.10;99.90
46319;DHT22;32042;50.916;2.926;2023-08-06T04:19:48;14.10;99.90
46319;DHT22;32042;50.916;2.926;2023-08-06T04:22:14;14.20;99.90
46319;DHT22;32042;50.916;2.926;2023-08-06T04:24:40;14.10;99.90
46319;DHT22;32042;50.916;2.926;2023-08-06T04:27:06;14.20;99.90
46319;DHT22;32042;50.916;2.926;2023-08-06T04:29:31;14.20;99.90
46319;DHT22;32042;50.916;2.926;2023-08-06T04:31:57;14.10;99.90
46319;DHT22;32042;50.916;2.926;2023-08-06T04:34:23;14.20;99.90
46319;DHT22;32042;50.916;2.926;2023-08-06T04:36:49;14.10;99.90
46319;DHT22;32042;50.916;2.926;2023-08-06T04:39:14;14.10;99.90
46319;DHT22;32042;50.916;2.926;2023-08-06T04:41:40;14.20;99.90
46319;DHT22;32042;50.916;2.926;2023-08-06T04:44:06;14.20;99.90
46319;DHT22;32042;50.916;2.926;2023-08-06T04:46:32;14.20;99.90
46319;DHT22;32042;50.916;2.926;2023-08-06T04:48:57;14.20;99.90
46319;DHT22;32042;50.916;2.926;2023-08-06T04:51:23;14.20;99.90
46319;DHT22;32042;50.916;2.926;2023-08-06T04:53:49;14.30;99.90
46319;DHT22;32042;50.916;2.926;2023-08-06T04:56:14;14.30;99.90
46319;DHT22;32042;50.916;2.926;2023-08-06T04:58:40;14.20;99.90
46319;DHT22;32042;50.916;2.926;2023-08-06T05:01:06;14.30;99.90
46319;DHT22;32042;50.916;2.926;2023-08-06T05:03:32;14.20;99.90
46319;DHT22;32042;50.916;2.926;2023-08-06T05:05:57;14.30;99.90
46319;DHT22;32042;50.916;2.926;2023-08-06T05:08:23;14.20;99.90
46319;DHT22;32042;50.916;2.926;2023-08-06T05:10:49;14.20;99.90
46319;DHT22;32042;50.916;2.926;2023-08-06T05:13:14;14.20;99.90
46319;DHT22;32042;50.916;2.926;2023-08-06T05:15:41;14.10;99.90
46319;DHT22;32042;50.916;2.926;2023-08-06T05:18:08;14.20;99.90
46319;DHT22;32042;50.916;2.926;2023-08-06T05:20:38;14.20;99.90
46319;DHT22;32042;50.916;2.926;2023-08-06T05:23:04;14.20;99.90
46319;DHT22;32042;50.916;2.926;2023-08-06T05:25:30;14.20;99.90
46319;DHT22;32042;50.916;2.926;2023-08-06T05:27:56;14.20;99.90
46319;DHT22;32042;50.916;2.926;2023-08-06T05:30:21;14.10;99.90
46319;DHT22;32042;50.916;2.926;2023-08-06T05:32:47;14.10;99.90
46319;DHT22;32042;50.916;2.926;2023-08-06T05:35:13;14.10;99.90
46319;DHT22;32042;50.916;2.926;2023-08-06T05:37:38;14.00;99.90
46319;DHT22;32042;50.916;2.926;2023-08-06T05:40:04;14.00;99.90
46319;DHT22;32042;50.916;2.926;2023-08-06T05:42:30;14.00;99.90
46319;DHT22;32042;50.916;2.926;2023-08-06T05:44:56;14.00;99.90
46319;DHT22;32042;50.916;2.926;2023-08-06T05:47:22;14.00;99.90
46319;DHT22;32042;50.916;2.926;2023-08-06T05:49:47;14.00;99.90
46319;DHT22;32042;50.916;2.926;2023-08-06T05:52:13;14.00;99.90
46319;DHT22;32042;50.916;2.926;2023-08-06T05:54:39;14.00;99.90
46319;DHT22;32042;50.916;2.926;2023-08-06T05:57:06;13.90;99.90
46319;DHT22;32042;50.916;2.926;2023-08-06T05:59:32;13.90;99.90
46319;DHT22;32042;50.916;2.926;2023-08-06T06:01:57;13.90;99.90
46319;DHT22;32042;50.916;2.926;2023-08-06T06:04:23;13.90;99.90
46319;DHT22;32042;50.916;2.926;2023-08-06T06:06:49;13.90;99.90
46319;DHT22;32042;50.916;2.926;2023-08-06T06:09:14;13.90;99.90
46319;DHT22;32042;50.916;2.926;2023-08-06T06:11:40;13.90;99.90
46319;DHT22;32042;50.916;2.926;2023-08-06T06:14:06;13.90;99.90
46319;DHT22;32042;50.916;2.926;2023-08-06T06:16:31;13.90;99.90
46319;DHT22;32042;50.916;2.926;2023-08-06T06:18:57;13.90;99.90
46319;DHT22;32042;50.916;2.926;2023-08-06T06:21:24;14.00;99.90
46319;DHT22;32042;50.916;2.926;2023-08-06T06:23:49;14.00;99.90
46319;DHT22;32042;50.916;2.926;2023-08-06T06:26:17;14.00;99.90
46319;DHT22;32042;50.916;2.926;2023-08-06T06:28:43;14.10;99.90
46319;DHT22;32042;50.916;2.926;2023-08-06T06:31:09;14.20;99.90
46319;DHT22;32042;50.916;2.926;2023-08-06T06:33:35;14.30;99.90
46319;DHT22;32042;50.916;2.926;2023-08-06T06:36:01;14.30;99.90
46319;DHT22;32042;50.916;2.926;2023-08-06T06:38:29;14.40;99.90
46319;DHT22;32042;50.916;2.926;2023-08-06T06:40:58;14.40;99.90
46319;DHT22;32042;50.916;2.926;2023-08-06T06:43:24;14.40;99.90
46319;DHT22;32042;50.916;2.926;2023-08-06T06:45:57;14.50;99.90
46319;DHT22;32042;50.916;2.926;2023-08-06T06:48:31;14.50;99.90
46319;DHT22;32042;50.916;2.926;2023-08-06T06:50:56;14.60;99.90
46319;DHT22;32042;50.916;2.926;2023-08-06T06:53:23;14.70;99.90
46319;DHT22;32042;50.916;2.926;2023-08-06T06:55:56;14.80;99.90
46319;DHT22;32042;50.916;2.926;2023-08-06T06:58:26;14.80;99.90
46319;DHT22;32042;50.916;2.926;2023-08-06T07:00:52;14.90;99.90
46319;DHT22;32042;50.916;2.926;2023-08-06T07:03:19;14.90;99.90
46319;DHT22;32042;50.916;2.926;2023-08-06T07:05:44;14.80;99.90
46319;DHT22;32042;50.916;2.926;2023-08-06T07:08:11;14.80;99.90
46319;DHT22;32042;50.916;2.926;2023-08-06T07:10:37;14.80;99.90
46319;DHT22;32042;50.916;2.926;2023-08-06T07:13:03;14.80;99.90
46319;DHT22;32042;50.916;2.926;2023-08-06T07:15:28;14.80;99.90
46319;DHT22;32042;50.916;2.926;2023-08-06T07:17:54;14.80;99.90
46319;DHT22;32042;50.916;2.926;2023-08-06T07:20:20;14.80;99.90
46319;DHT22;32042;50.916;2.926;2023-08-06T07:22:46;14.80;99.90
46319;DHT22;32042;50.916;2.926;2023-08-06T07:25:12;14.80;99.90
46319;DHT22;32042;50.916;2.926;2023-08-06T07:27:38;14.80;99.90
46319;DHT22;32042;50.916;2.926;2023-08-06T07:30:04;14.90;99.90
46319;DHT22;32042;50.916;2.926;2023-08-06T07:32:31;14.90;99.90
46319;DHT22;32042;50.916;2.926;2023-08-06T07:34:56;14.80;99.90
46319;DHT22;32042;50.916;2.926;2023-08-06T07:37:26;14.90;99.90
46319;DHT22;32042;50.916;2.926;2023-08-06T07:39:54;14.80;99.90
46319;DHT22;32042;50.916;2.926;2023-08-06T07:42:20;14.90;99.90
46319;DHT22;32042;50.916;2.926;2023-08-06T07:44:57;14.80;99.90
46319;DHT22;32042;50.916;2.926;2023-08-06T07:47:23;14.90;99.90
46319;DHT22;32042;50.916;2.926;2023-08-06T07:49:49;14.90;99.90
46319;DHT22;32042;50.916;2.926;2023-08-06T07:52:15;14.90;99.90
46319;DHT22;32042;50.916;2.926;2023-08-06T07:54:40;14.90;99.90
46319;DHT22;32042;50.916;2.926;2023-08-06T07:57:06;14.90;99.90
46319;DHT22;32042;50.916;2.926;2023-08-06T07:59:32;14.90;99.90
46319;DHT22;32042;50.916;2.926;2023-08-06T08:01:58;14.90;99.90
46319;DHT22;32042;50.916;2.926;2023-08-06T08:04:24;14.90;99.90
46319;DHT22;32042;50.916;2.926;2023-08-06T08:06:50;14.90;99.90
46319;DHT22;32042;50.916;2.926;2023-08-06T08:09:16;14.80;99.90
46319;DHT22;32042;50.916;2.926;2023-08-06T08:11:42;14.80;99.90
46319;DHT22;32042;50.916;2.926;2023-08-06T08:14:07;14.80;99.90
46319;DHT22;32042;50.916;2.926;2023-08-06T08:16:33;14.70;99.90
46319;DHT22;32042;50.916;2.926;2023-08-06T08:18:59;14.70;99.90
46319;DHT22;32042;50.916;2.926;2023-08-06T08:21:25;14.60;99.90
46319;DHT22;32042;50.916;2.926;2023-08-06T08:23:51;14.60;99.90
46319;DHT22;32042;50.916;2.926;2023-08-06T08:26:17;14.60;99.90
46319;DHT22;32042;50.916;2.926;2023-08-06T08:28:43;14.60;99.90
46319;DHT22;32042;50.916;2.926;2023-08-06T08:31:10;14.50;99.90
46319;DHT22;32042;50.916;2.926;2023-08-06T08:33:37;14.50;99.90
46319;DHT22;32042;50.916;2.926;2023-08-06T08:36:03;14.60;99.90
46319;DHT22;32042;50.916;2.926;2023-08-06T08:38:29;14.80;99.90
46319;DHT22;32042;50.916;2.926;2023-08-06T08:40:55;15.10;99.90
46319;DHT22;32042;50.916;2.926;2023-08-06T08:43:21;15.40;99.90
46319;DHT22;32042;50.916;2.926;2023-08-06T08:45:50;15.40;99.90
46319;DHT22;32042;50.916;2.926;2023-08-06T08:48:17;15.50;99.90
46319;DHT22;32042;50.916;2.926;2023-08-06T08:50:47;15.40;99.90
46319;DHT22;32042;50.916;2.926;2023-08-06T08:53:16;15.40;99.90
46319;DHT22;32042;50.916;2.926;2023-08-06T08:55:48;15.10;99.90
46319;DHT22;32042;50.916;2.926;2023-08-06T08:58:14;15.00;99.90
46319;DHT22;32042;50.916;2.926;2023-08-06T09:00:48;14.90;99.90
46319;DHT22;32042;50.916;2.926;2023-08-06T09:03:14;14.90;99.90
46319;DHT22;32042;50.916;2.926;2023-08-06T09:05:45;14.90;99.90
46319;DHT22;32042;50.916;2.926;2023-08-06T09:08:18;14.80;99.90
46319;DHT22;32042;50.916;2.926;2023-08-06T09:10:44;14.80;99.90
46319;DHT22;32042;50.916;2.926;2023-08-06T09:13:13;14.90;99.90
46319;DHT22;32042;50.916;2.926;2023-08-06T09:15:39;14.80;99.90
46319;DHT22;32042;50.916;2.926;2023-08-06T09:18:11;14.70;99.90
46319;DHT22;32042;50.916;2.926;2023-08-06T09:20:38;14.70;99.90
46319;DHT22;32042;50.916;2.926;2023-08-06T09:23:10;14.70;99.90
46319;DHT22;32042;50.916;2.926;2023-08-06T09:25:38;14.70;99.90
46319;DHT22;32042;50.916;2.926;2023-08-06T09:28:06;14.60;99.90
46319;DHT22;32042;50.916;2.926;2023-08-06T09:30:33;14.60;99.90
46319;DHT22;32042;50.916;2.926;2023-08-06T09:32:59;14.70;99.90
46319;DHT22;32042;50.916;2.926;2023-08-06T09:35:28;14.70;99.90
46319;DHT22;32042;50.916;2.926;2023-08-06T09:37:55;14.90;99.90
46319;DHT22;32042;50.916;2.926;2023-08-06T09:40:29;15.00;99.90
46319;DHT22;32042;50.916;2.926;2023-08-06T09:42:55;15.10;99.90
46319;DHT22;32042;50.916;2.926;2023-08-06T09:45:21;15.10;99.90
46319;DHT22;32042;50.916;2.926;2023-08-06T09:47:51;15.10;99.90
46319;DHT22;32042;50.916;2.926;2023-08-06T09:50:21;15.00;99.90
46319;DHT22;32042;50.916;2.926;2023-08-06T09:52:47;14.90;99.90
46319;DHT22;32042;50.916;2.926;2023-08-06T09:55:16;15.00;99.90
46319;DHT22;32042;50.916;2.926;2023-08-06T09:57:43;15.00;99.90
